sensor_id;sensor_type;location;lat;lon;timestamp;P1;durP1;ratioP1;P2;durP2;ratioP2
31083;SDS011;36333;51.382;0.016;2022-10-16T00:01:25;37.65;;;5.07;;
31083;SDS011;36333;51.382;0.016;2022-10-16T00:03:54;36.83;;;4.70;;
31083;SDS011;36333;51.382;0.016;2022-10-16T00:06:23;30.77;;;4.35;;
31083;SDS011;36333;51.382;0.016;2022-10-16T00:08:51;34.90;;;4.65;;
31083;SDS011;36333;51.382;0.016;2022-10-16T00:11:20;35.30;;;5.10;;
31083;SDS011;36333;51.382;0.016;2022-10-16T00:13:51;33.30;;;4.82;;
31083;SDS011;36333;51.382;0.016;2022-10-16T00:16:21;36.33;;;4.13;;
31083;SDS011;36333;51.382;0.016;2022-10-16T00:18:48;36.08;;;4.57;;
31083;SDS011;36333;51.382;0.016;2022-10-16T00:21:17;43.50;;;5.00;;
31083;SDS011;36333;51.382;0.016;2022-10-16T00:24:06;36.30;;;4.60;;
31083;SDS011;36333;51.382;0.016;2022-10-16T00:26:36;35.78;;;4.38;;
31083;SDS011;36333;51.382;0.016;2022-10-16T00:29:04;26.33;;;4.07;;
31083;SDS011;36333;51.382;0.016;2022-10-16T00:31:32;26.77;;;3.38;;
31083;SDS011;36333;51.382;0.016;2022-10-16T00:34:00;28.23;;;3.63;;
31083;SDS011;36333;51.382;0.016;2022-10-16T00:36:28;25.70;;;3.30;;
31083;SDS011;36333;51.382;0.016;2022-10-16T00:38:56;24.17;;;3.83;;
31083;SDS011;36333;51.382;0.016;2022-10-16T00:41:31;27.42;;;3.33;;
31083;SDS011;36333;51.382;0.016;2022-10-16T00:44:01;24.05;;;3.67;;
31083;SDS011;36333;51.382;0.016;2022-10-16T00:46:42;29.85;;;3.67;;
31083;SDS011;36333;51.382;0.016;2022-10-16T00:49:10;24.95;;;3.83;;
31083;SDS011;36333;51.382;0.016;2022-10-16T00:51:47;29.67;;;3.55;;
31083;SDS011;36333;51.382;0.016;2022-10-16T00:54:17;30.38;;;3.42;;
31083;SDS011;36333;51.382;0.016;2022-10-16T00:56:48;23.90;;;3.42;;
31083;SDS011;36333;51.382;0.016;2022-10-16T00:59:24;20.23;;;2.95;;
31083;SDS011;36333;51.382;0.016;2022-10-16T01:01:54;27.52;;;3.42;;
31083;SDS011;36333;51.382;0.016;2022-10-16T01:04:24;22.48;;;3.30;;
31083;SDS011;36333;51.382;0.016;2022-10-16T01:09:55;19.23;;;3.10;;
31083;SDS011;36333;51.382;0.016;2022-10-16T01:18:03;23.33;;;3.57;;
31083;SDS011;36333;51.382;0.016;2022-10-16T01:20:59;30.92;;;3.45;;
31083;SDS011;36333;51.382;0.016;2022-10-16T01:23:42;34.35;;;3.85;;
31083;SDS011;36333;51.382;0.016;2022-10-16T01:31:57;32.20;;;4.28;;
31083;SDS011;36333;51.382;0.016;2022-10-16T01:34:31;39.90;;;4.55;;
31083;SDS011;36333;51.382;0.016;2022-10-16T01:37:04;36.50;;;4.20;;
31083;SDS011;36333;51.382;0.016;2022-10-16T01:39:35;39.03;;;4.28;;
31083;SDS011;36333;51.382;0.016;2022-10-16T01:42:07;39.47;;;4.35;;
31083;SDS011;36333;51.382;0.016;2022-10-16T01:44:40;47.88;;;5.00;;
31083;SDS011;36333;51.382;0.016;2022-10-16T01:47:10;38.40;;;4.63;;
31083;SDS011;36333;51.382;0.016;2022-10-16T01:49:40;38.33;;;4.53;;
31083;SDS011;36333;51.382;0.016;2022-10-16T01:52:11;40.40;;;5.15;;
31083;SDS011;36333;51.382;0.016;2022-10-16T01:54:43;35.05;;;4.30;;
31083;SDS011;36333;51.382;0.016;2022-10-16T01:57:13;37.50;;;4.63;;
31083;SDS011;36333;51.382;0.016;2022-10-16T01:59:46;44.80;;;4.82;;
31083;SDS011;36333;51.382;0.016;2022-10-16T02:02:17;31.30;;;4.45;;
31083;SDS011;36333;51.382;0.016;2022-10-16T02:04:55;34.40;;;4.18;;
31083;SDS011;36333;51.382;0.016;2022-10-16T02:07:27;37.60;;;4.70;;
31083;SDS011;36333;51.382;0.016;2022-10-16T02:09:55;35.35;;;4.10;;
31083;SDS011;36333;51.382;0.016;2022-10-16T02:12:26;45.97;;;5.07;;
31083;SDS011;36333;51.382;0.016;2022-10-16T02:14:56;35.67;;;4.63;;
31083;SDS011;36333;51.382;0.016;2022-10-16T02:17:25;35.55;;;4.65;;
31083;SDS011;36333;51.382;0.016;2022-10-16T02:19:54;34.42;;;4.28;;
31083;SDS011;36333;51.382;0.016;2022-10-16T02:22:28;37.08;;;4.60;;
31083;SDS011;36333;51.382;0.016;2022-10-16T02:33:35;21.27;;;3.55;;
31083;SDS011;36333;51.382;0.016;2022-10-16T02:36:05;25.13;;;3.42;;
31083;SDS011;36333;51.382;0.016;2022-10-16T02:38:34;30.20;;;3.67;;
31083;SDS011;36333;51.382;0.016;2022-10-16T02:41:04;23.13;;;3.60;;
31083;SDS011;36333;51.382;0.016;2022-10-16T02:43:33;30.17;;;4.00;;
31083;SDS011;36333;51.382;0.016;2022-10-16T02:46:01;22.90;;;3.58;;
31083;SDS011;36333;51.382;0.016;2022-10-16T02:48:28;30.25;;;3.70;;
31083;SDS011;36333;51.382;0.016;2022-10-16T02:50:56;22.40;;;3.75;;
31083;SDS011;36333;51.382;0.016;2022-10-16T02:53:24;22.63;;;4.47;;
31083;SDS011;36333;51.382;0.016;2022-10-16T02:55:51;31.27;;;4.07;;
31083;SDS011;36333;51.382;0.016;2022-10-16T02:58:18;29.53;;;4.83;;
31083;SDS011;36333;51.382;0.016;2022-10-16T03:00:46;30.00;;;4.20;;
31083;SDS011;36333;51.382;0.016;2022-10-16T03:03:14;34.00;;;4.28;;
31083;SDS011;36333;51.382;0.016;2022-10-16T03:05:42;29.88;;;3.78;;
31083;SDS011;36333;51.382;0.016;2022-10-16T03:08:12;31.55;;;3.97;;
31083;SDS011;36333;51.382;0.016;2022-10-16T03:13:07;28.17;;;3.70;;
31083;SDS011;36333;51.382;0.016;2022-10-16T03:15:35;26.87;;;3.63;;
31083;SDS011;36333;51.382;0.016;2022-10-16T03:18:02;29.00;;;3.85;;
31083;SDS011;36333;51.382;0.016;2022-10-16T03:20:30;29.58;;;3.50;;
31083;SDS011;36333;51.382;0.016;2022-10-16T03:22:58;27.27;;;3.60;;
31083;SDS011;36333;51.382;0.016;2022-10-16T03:25:25;26.55;;;3.38;;
31083;SDS011;36333;51.382;0.016;2022-10-16T03:27:52;25.95;;;3.35;;
31083;SDS011;36333;51.382;0.016;2022-10-16T03:30:20;30.85;;;3.97;;
31083;SDS011;36333;51.382;0.016;2022-10-16T03:32:48;18.48;;;3.13;;
31083;SDS011;36333;51.382;0.016;2022-10-16T03:35:15;25.80;;;2.95;;
31083;SDS011;36333;51.382;0.016;2022-10-16T03:37:43;24.77;;;3.35;;
31083;SDS011;36333;51.382;0.016;2022-10-16T03:40:10;23.30;;;2.97;;
31083;SDS011;36333;51.382;0.016;2022-10-16T03:42:38;21.90;;;3.20;;
31083;SDS011;36333;51.382;0.016;2022-10-16T03:45:06;23.10;;;2.90;;
31083;SDS011;36333;51.382;0.016;2022-10-16T03:47:34;25.88;;;3.42;;
31083;SDS011;36333;51.382;0.016;2022-10-16T03:50:02;20.25;;;3.45;;
31083;SDS011;36333;51.382;0.016;2022-10-16T03:52:29;20.20;;;3.30;;
31083;SDS011;36333;51.382;0.016;2022-10-16T03:54:59;25.45;;;3.30;;
31083;SDS011;36333;51.382;0.016;2022-10-16T03:57:26;26.20;;;3.22;;
31083;SDS011;36333;51.382;0.016;2022-10-16T03:59:54;23.10;;;2.97;;
31083;SDS011;36333;51.382;0.016;2022-10-16T04:02:22;27.33;;;3.15;;
31083;SDS011;36333;51.382;0.016;2022-10-16T04:07:18;27.35;;;3.20;;
31083;SDS011;36333;51.382;0.016;2022-10-16T04:09:45;27.63;;;3.25;;
31083;SDS011;36333;51.382;0.016;2022-10-16T04:12:13;30.73;;;3.17;;
31083;SDS011;36333;51.382;0.016;2022-10-16T04:14:41;33.38;;;3.83;;
31083;SDS011;36333;51.382;0.016;2022-10-16T04:17:08;31.30;;;3.15;;
31083;SDS011;36333;51.382;0.016;2022-10-16T04:19:36;23.88;;;3.38;;
31083;SDS011;36333;51.382;0.016;2022-10-16T04:22:03;25.02;;;3.03;;
31083;SDS011;36333;51.382;0.016;2022-10-16T04:24:31;28.55;;;3.30;;
31083;SDS011;36333;51.382;0.016;2022-10-16T04:26:58;35.17;;;3.40;;
31083;SDS011;36333;51.382;0.016;2022-10-16T04:29:26;34.03;;;3.70;;
31083;SDS011;36333;51.382;0.016;2022-10-16T04:31:53;26.42;;;3.42;;
31083;SDS011;36333;51.382;0.016;2022-10-16T04:34:21;25.92;;;3.65;;
31083;SDS011;36333;51.382;0.016;2022-10-16T04:36:49;29.20;;;3.92;;
31083;SDS011;36333;51.382;0.016;2022-10-16T04:39:16;26.67;;;3.42;;
31083;SDS011;36333;51.382;0.016;2022-10-16T04:41:44;24.48;;;3.33;;
31083;SDS011;36333;51.382;0.016;2022-10-16T04:44:11;31.35;;;3.75;;
31083;SDS011;36333;51.382;0.016;2022-10-16T04:46:39;24.50;;;3.38;;
31083;SDS011;36333;51.382;0.016;2022-10-16T04:49:06;35.00;;;3.72;;
31083;SDS011;36333;51.382;0.016;2022-10-16T04:51:34;26.10;;;3.03;;
31083;SDS011;36333;51.382;0.016;2022-10-16T04:54:01;28.33;;;3.50;;
31083;SDS011;36333;51.382;0.016;2022-10-16T04:56:29;28.90;;;3.20;;
31083;SDS011;36333;51.382;0.016;2022-10-16T04:58:56;28.45;;;3.47;;
31083;SDS011;36333;51.382;0.016;2022-10-16T05:01:24;32.25;;;4.03;;
31083;SDS011;36333;51.382;0.016;2022-10-16T05:03:51;32.72;;;3.55;;
31083;SDS011;36333;51.382;0.016;2022-10-16T05:06:19;28.15;;;3.28;;
31083;SDS011;36333;51.382;0.016;2022-10-16T05:08:46;39.28;;;3.58;;
31083;SDS011;36333;51.382;0.016;2022-10-16T05:11:14;32.08;;;3.22;;
31083;SDS011;36333;51.382;0.016;2022-10-16T05:13:41;29.55;;;3.60;;
31083;SDS011;36333;51.382;0.016;2022-10-16T05:16:09;24.10;;;3.03;;
31083;SDS011;36333;51.382;0.016;2022-10-16T05:18:36;30.38;;;3.78;;
31083;SDS011;36333;51.382;0.016;2022-10-16T05:21:04;27.67;;;3.10;;
31083;SDS011;36333;51.382;0.016;2022-10-16T05:23:33;27.80;;;3.20;;
31083;SDS011;36333;51.382;0.016;2022-10-16T05:26:01;26.08;;;3.20;;
31083;SDS011;36333;51.382;0.016;2022-10-16T05:28:28;28.30;;;3.78;;
31083;SDS011;36333;51.382;0.016;2022-10-16T05:30:58;29.80;;;3.53;;
31083;SDS011;36333;51.382;0.016;2022-10-16T05:33:26;23.75;;;3.22;;
31083;SDS011;36333;51.382;0.016;2022-10-16T05:35:53;24.25;;;3.08;;
31083;SDS011;36333;51.382;0.016;2022-10-16T05:38:21;26.75;;;3.63;;
31083;SDS011;36333;51.382;0.016;2022-10-16T05:40:52;36.88;;;4.00;;
31083;SDS011;36333;51.382;0.016;2022-10-16T05:43:19;36.70;;;3.40;;
31083;SDS011;36333;51.382;0.016;2022-10-16T05:45:57;26.98;;;2.88;;
31083;SDS011;36333;51.382;0.016;2022-10-16T05:48:27;33.65;;;4.05;;
31083;SDS011;36333;51.382;0.016;2022-10-16T05:51:14;37.35;;;3.80;;
31083;SDS011;36333;51.382;0.016;2022-10-16T05:53:42;24.17;;;3.33;;
31083;SDS011;36333;51.382;0.016;2022-10-16T05:56:14;31.45;;;3.50;;
31083;SDS011;36333;51.382;0.016;2022-10-16T05:58:42;28.80;;;3.67;;
31083;SDS011;36333;51.382;0.016;2022-10-16T06:01:15;32.53;;;3.65;;
31083;SDS011;36333;51.382;0.016;2022-10-16T06:03:44;31.55;;;3.35;;
31083;SDS011;36333;51.382;0.016;2022-10-16T06:06:13;31.40;;;3.90;;
31083;SDS011;36333;51.382;0.016;2022-10-16T06:08:42;32.70;;;3.72;;
31083;SDS011;36333;51.382;0.016;2022-10-16T06:11:13;29.92;;;3.90;;
31083;SDS011;36333;51.382;0.016;2022-10-16T06:13:49;31.52;;;3.70;;
31083;SDS011;36333;51.382;0.016;2022-10-16T06:16:18;26.45;;;3.38;;
31083;SDS011;36333;51.382;0.016;2022-10-16T06:21:16;35.40;;;3.55;;
31083;SDS011;36333;51.382;0.016;2022-10-16T06:23:46;25.75;;;3.38;;
31083;SDS011;36333;51.382;0.016;2022-10-16T06:26:15;26.55;;;3.33;;
31083;SDS011;36333;51.382;0.016;2022-10-16T06:28:44;29.10;;;3.67;;
31083;SDS011;36333;51.382;0.016;2022-10-16T06:31:12;33.65;;;3.97;;
31083;SDS011;36333;51.382;0.016;2022-10-16T06:33:40;33.75;;;4.00;;
31083;SDS011;36333;51.382;0.016;2022-10-16T06:36:09;34.40;;;3.80;;
31083;SDS011;36333;51.382;0.016;2022-10-16T06:38:45;33.40;;;3.67;;
31083;SDS011;36333;51.382;0.016;2022-10-16T06:41:17;38.83;;;3.97;;
31083;SDS011;36333;51.382;0.016;2022-10-16T06:43:47;31.48;;;3.67;;
31083;SDS011;36333;51.382;0.016;2022-10-16T06:46:16;31.38;;;4.07;;
31083;SDS011;36333;51.382;0.016;2022-10-16T06:48:46;32.42;;;4.32;;
31083;SDS011;36333;51.382;0.016;2022-10-16T06:51:15;32.63;;;3.42;;
31083;SDS011;36333;51.382;0.016;2022-10-16T06:53:46;29.05;;;3.50;;
31083;SDS011;36333;51.382;0.016;2022-10-16T06:56:32;25.55;;;3.30;;
31083;SDS011;36333;51.382;0.016;2022-10-16T06:59:00;30.20;;;3.75;;
31083;SDS011;36333;51.382;0.016;2022-10-16T07:01:29;33.75;;;3.80;;
31083;SDS011;36333;51.382;0.016;2022-10-16T07:03:58;33.28;;;3.38;;
31083;SDS011;36333;51.382;0.016;2022-10-16T07:06:26;30.45;;;3.90;;
31083;SDS011;36333;51.382;0.016;2022-10-16T07:08:57;29.25;;;3.83;;
31083;SDS011;36333;51.382;0.016;2022-10-16T07:11:24;37.33;;;3.70;;
31083;SDS011;36333;51.382;0.016;2022-10-16T07:13:52;36.72;;;3.85;;
31083;SDS011;36333;51.382;0.016;2022-10-16T07:16:23;28.20;;;3.72;;
31083;SDS011;36333;51.382;0.016;2022-10-16T07:18:53;39.60;;;3.75;;
31083;SDS011;36333;51.382;0.016;2022-10-16T07:21:27;36.95;;;3.83;;
31083;SDS011;36333;51.382;0.016;2022-10-16T07:23:57;30.80;;;3.42;;
31083;SDS011;36333;51.382;0.016;2022-10-16T07:26:28;40.53;;;4.10;;
31083;SDS011;36333;51.382;0.016;2022-10-16T07:28:57;32.85;;;3.65;;
31083;SDS011;36333;51.382;0.016;2022-10-16T07:31:26;37.05;;;3.85;;
31083;SDS011;36333;51.382;0.016;2022-10-16T07:33:58;27.67;;;3.90;;
31083;SDS011;36333;51.382;0.016;2022-10-16T07:36:27;31.85;;;4.13;;
31083;SDS011;36333;51.382;0.016;2022-10-16T07:38:54;31.73;;;3.78;;
31083;SDS011;36333;51.382;0.016;2022-10-16T07:41:26;32.75;;;3.70;;
31083;SDS011;36333;51.382;0.016;2022-10-16T07:43:54;33.67;;;4.15;;
31083;SDS011;36333;51.382;0.016;2022-10-16T07:46:29;27.42;;;3.33;;
31083;SDS011;36333;51.382;0.016;2022-10-16T07:48:57;37.10;;;4.22;;
31083;SDS011;36333;51.382;0.016;2022-10-16T07:51:25;27.77;;;3.80;;
31083;SDS011;36333;51.382;0.016;2022-10-16T07:53:53;36.97;;;4.15;;
31083;SDS011;36333;51.382;0.016;2022-10-16T07:56:20;37.42;;;3.92;;
31083;SDS011;36333;51.382;0.016;2022-10-16T07:58:49;38.95;;;4.22;;
31083;SDS011;36333;51.382;0.016;2022-10-16T08:01:17;32.72;;;3.70;;
31083;SDS011;36333;51.382;0.016;2022-10-16T08:03:46;30.77;;;3.88;;
31083;SDS011;36333;51.382;0.016;2022-10-16T08:06:15;31.10;;;3.60;;
31083;SDS011;36333;51.382;0.016;2022-10-16T08:08:48;27.08;;;3.25;;
31083;SDS011;36333;51.382;0.016;2022-10-16T08:11:15;34.45;;;4.25;;
31083;SDS011;36333;51.382;0.016;2022-10-16T08:13:43;32.58;;;4.00;;
31083;SDS011;36333;51.382;0.016;2022-10-16T08:16:11;33.13;;;3.97;;
31083;SDS011;36333;51.382;0.016;2022-10-16T08:18:39;27.65;;;4.07;;
31083;SDS011;36333;51.382;0.016;2022-10-16T08:21:15;34.70;;;4.00;;
31083;SDS011;36333;51.382;0.016;2022-10-16T08:23:48;26.25;;;3.97;;
31083;SDS011;36333;51.382;0.016;2022-10-16T08:26:25;22.88;;;3.63;;
31083;SDS011;36333;51.382;0.016;2022-10-16T08:28:53;23.65;;;3.17;;
31083;SDS011;36333;51.382;0.016;2022-10-16T08:33:49;25.02;;;3.45;;
31083;SDS011;36333;51.382;0.016;2022-10-16T08:36:16;30.00;;;3.58;;
31083;SDS011;36333;51.382;0.016;2022-10-16T08:38:46;22.17;;;3.95;;
31083;SDS011;36333;51.382;0.016;2022-10-16T08:49:27;25.90;;;3.35;;
31083;SDS011;36333;51.382;0.016;2022-10-16T08:51:56;21.95;;;3.22;;
31083;SDS011;36333;51.382;0.016;2022-10-16T08:54:27;26.80;;;3.58;;
31083;SDS011;36333;51.382;0.016;2022-10-16T08:57:07;20.58;;;3.13;;
31083;SDS011;36333;51.382;0.016;2022-10-16T08:59:45;25.80;;;3.38;;
31083;SDS011;36333;51.382;0.016;2022-10-16T09:11:10;23.65;;;3.92;;
31083;SDS011;36333;51.382;0.016;2022-10-16T09:13:33;21.00;;;3.30;;
31083;SDS011;36333;51.382;0.016;2022-10-16T09:16:35;22.75;;;3.13;;
31083;SDS011;36333;51.382;0.016;2022-10-16T09:21:48;25.45;;;3.35;;
31083;SDS011;36333;51.382;0.016;2022-10-16T09:24:17;29.92;;;3.92;;
31083;SDS011;36333;51.382;0.016;2022-10-16T09:26:48;20.63;;;3.03;;
31083;SDS011;36333;51.382;0.016;2022-10-16T09:29:16;27.77;;;3.28;;
31083;SDS011;36333;51.382;0.016;2022-10-16T09:31:48;25.35;;;3.15;;
31083;SDS011;36333;51.382;0.016;2022-10-16T09:36:46;23.60;;;3.70;;
31083;SDS011;36333;51.382;0.016;2022-10-16T09:39:14;25.67;;;3.33;;
31083;SDS011;36333;51.382;0.016;2022-10-16T09:41:42;23.60;;;3.17;;
31083;SDS011;36333;51.382;0.016;2022-10-16T09:44:22;21.25;;;2.78;;
31083;SDS011;36333;51.382;0.016;2022-10-16T09:47:00;25.02;;;3.70;;
31083;SDS011;36333;51.382;0.016;2022-10-16T09:49:32;22.48;;;2.75;;
31083;SDS011;36333;51.382;0.016;2022-10-16T09:52:04;20.90;;;3.63;;
31083;SDS011;36333;51.382;0.016;2022-10-16T09:54:51;22.02;;;3.50;;
31083;SDS011;36333;51.382;0.016;2022-10-16T09:57:21;24.88;;;3.45;;
31083;SDS011;36333;51.382;0.016;2022-10-16T09:59:54;17.30;;;3.53;;
31083;SDS011;36333;51.382;0.016;2022-10-16T10:02:34;20.48;;;3.25;;
31083;SDS011;36333;51.382;0.016;2022-10-16T10:05:02;20.92;;;2.97;;
31083;SDS011;36333;51.382;0.016;2022-10-16T10:07:33;20.75;;;2.97;;
31083;SDS011;36333;51.382;0.016;2022-10-16T10:10:18;17.15;;;3.08;;
31083;SDS011;36333;51.382;0.016;2022-10-16T10:12:48;21.52;;;3.08;;
31083;SDS011;36333;51.382;0.016;2022-10-16T10:15:19;15.25;;;2.42;;
31083;SDS011;36333;51.382;0.016;2022-10-16T10:17:55;21.40;;;3.15;;
31083;SDS011;36333;51.382;0.016;2022-10-16T10:22:54;14.65;;;2.63;;
31083;SDS011;36333;51.382;0.016;2022-10-16T10:34:04;16.63;;;2.70;;
31083;SDS011;36333;51.382;0.016;2022-10-16T10:36:55;16.65;;;3.00;;
31083;SDS011;36333;51.382;0.016;2022-10-16T10:50:31;14.25;;;2.88;;
31083;SDS011;36333;51.382;0.016;2022-10-16T10:53:29;15.20;;;2.85;;
31083;SDS011;36333;51.382;0.016;2022-10-16T10:56:37;20.77;;;3.05;;
31083;SDS011;36333;51.382;0.016;2022-10-16T11:02:26;16.73;;;2.80;;
31083;SDS011;36333;51.382;0.016;2022-10-16T11:05:17;18.15;;;2.97;;
31083;SDS011;36333;51.382;0.016;2022-10-16T11:10:52;22.77;;;3.40;;
31083;SDS011;36333;51.382;0.016;2022-10-16T11:16:26;19.73;;;4.55;;
31083;SDS011;36333;51.382;0.016;2022-10-16T11:19:03;15.10;;;3.20;;
31083;SDS011;36333;51.382;0.016;2022-10-16T11:22:00;15.60;;;3.33;;
31083;SDS011;36333;51.382;0.016;2022-10-16T11:24:49;19.70;;;2.78;;
31083;SDS011;36333;51.382;0.016;2022-10-16T11:27:40;20.65;;;3.33;;
31083;SDS011;36333;51.382;0.016;2022-10-16T11:30:29;20.95;;;3.50;;
31083;SDS011;36333;51.382;0.016;2022-10-16T11:35:47;20.30;;;3.30;;
31083;SDS011;36333;51.382;0.016;2022-10-16T11:38:43;20.77;;;3.28;;
31083;SDS011;36333;51.382;0.016;2022-10-16T11:41:29;20.75;;;2.88;;
31083;SDS011;36333;51.382;0.016;2022-10-16T11:47:12;20.75;;;3.17;;
31083;SDS011;36333;51.382;0.016;2022-10-16T11:50:22;14.98;;;3.13;;
31083;SDS011;36333;51.382;0.016;2022-10-16T11:52:58;18.48;;;3.38;;
31083;SDS011;36333;51.382;0.016;2022-10-16T11:55:35;16.52;;;2.88;;
31083;SDS011;36333;51.382;0.016;2022-10-16T11:58:29;22.52;;;3.38;;
31083;SDS011;36333;51.382;0.016;2022-10-16T12:01:26;23.83;;;3.60;;
31083;SDS011;36333;51.382;0.016;2022-10-16T12:04:11;21.92;;;3.55;;
31083;SDS011;36333;51.382;0.016;2022-10-16T12:09:39;25.50;;;4.38;;
31083;SDS011;36333;51.382;0.016;2022-10-16T12:12:27;23.92;;;3.70;;
31083;SDS011;36333;51.382;0.016;2022-10-16T12:17:56;15.55;;;3.03;;
31083;SDS011;36333;51.382;0.016;2022-10-16T12:22:54;18.20;;;3.70;;
31083;SDS011;36333;51.382;0.016;2022-10-16T12:25:28;22.98;;;3.67;;
31083;SDS011;36333;51.382;0.016;2022-10-16T12:30:34;25.67;;;3.50;;
31083;SDS011;36333;51.382;0.016;2022-10-16T12:33:04;19.25;;;3.70;;
31083;SDS011;36333;51.382;0.016;2022-10-16T12:35:34;24.05;;;4.03;;
31083;SDS011;36333;51.382;0.016;2022-10-16T12:43:54;22.17;;;4.22;;
31083;SDS011;36333;51.382;0.016;2022-10-16T12:46:38;24.75;;;3.90;;
31083;SDS011;36333;51.382;0.016;2022-10-16T12:51:40;25.38;;;4.05;;
31083;SDS011;36333;51.382;0.016;2022-10-16T12:59:55;27.90;;;4.13;;
31083;SDS011;36333;51.382;0.016;2022-10-16T13:11:08;22.10;;;3.95;;
31083;SDS011;36333;51.382;0.016;2022-10-16T13:16:40;26.25;;;4.18;;
31083;SDS011;36333;51.382;0.016;2022-10-16T13:25:12;22.17;;;4.07;;
31083;SDS011;36333;51.382;0.016;2022-10-16T13:28:02;19.42;;;4.18;;
31083;SDS011;36333;51.382;0.016;2022-10-16T13:30:35;28.17;;;4.30;;
31083;SDS011;36333;51.382;0.016;2022-10-16T13:33:14;26.70;;;4.15;;
31083;SDS011;36333;51.382;0.016;2022-10-16T13:35:50;28.70;;;3.83;;
31083;SDS011;36333;51.382;0.016;2022-10-16T13:38:23;26.45;;;3.90;;
31083;SDS011;36333;51.382;0.016;2022-10-16T13:40:54;26.50;;;4.30;;
31083;SDS011;36333;51.382;0.016;2022-10-16T13:43:49;26.67;;;4.40;;
31083;SDS011;36333;51.382;0.016;2022-10-16T13:46:19;24.10;;;4.10;;
31083;SDS011;36333;51.382;0.016;2022-10-16T13:49:02;25.67;;;3.70;;
31083;SDS011;36333;51.382;0.016;2022-10-16T13:51:33;24.50;;;3.92;;
31083;SDS011;36333;51.382;0.016;2022-10-16T13:54:01;31.10;;;4.40;;
31083;SDS011;36333;51.382;0.016;2022-10-16T13:56:32;21.98;;;3.75;;
31083;SDS011;36333;51.382;0.016;2022-10-16T13:59:20;24.05;;;4.20;;
31083;SDS011;36333;51.382;0.016;2022-10-16T14:02:15;24.83;;;4.07;;
31083;SDS011;36333;51.382;0.016;2022-10-16T14:04:48;23.40;;;4.30;;
31083;SDS011;36333;51.382;0.016;2022-10-16T14:07:21;24.52;;;4.43;;
31083;SDS011;36333;51.382;0.016;2022-10-16T14:09:52;35.85;;;13.50;;
31083;SDS011;36333;51.382;0.016;2022-10-16T14:12:21;25.45;;;4.68;;
31083;SDS011;36333;51.382;0.016;2022-10-16T14:14:54;22.95;;;4.25;;
31083;SDS011;36333;51.382;0.016;2022-10-16T14:17:25;25.38;;;4.30;;
31083;SDS011;36333;51.382;0.016;2022-10-16T14:19:58;24.30;;;4.32;;
31083;SDS011;36333;51.382;0.016;2022-10-16T14:30:33;25.70;;;4.32;;
31083;SDS011;36333;51.382;0.016;2022-10-16T14:35:35;28.38;;;4.35;;
31083;SDS011;36333;51.382;0.016;2022-10-16T14:38:05;23.45;;;4.38;;
31083;SDS011;36333;51.382;0.016;2022-10-16T14:40:46;24.17;;;4.30;;
31083;SDS011;36333;51.382;0.016;2022-10-16T14:43:20;32.10;;;4.82;;
31083;SDS011;36333;51.382;0.016;2022-10-16T14:45:50;28.08;;;4.45;;
31083;SDS011;36333;51.382;0.016;2022-10-16T14:48:21;22.05;;;3.53;;
31083;SDS011;36333;51.382;0.016;2022-10-16T14:50:49;21.75;;;3.88;;
31083;SDS011;36333;51.382;0.016;2022-10-16T14:53:17;26.90;;;4.20;;
31083;SDS011;36333;51.382;0.016;2022-10-16T14:55:44;23.83;;;4.25;;
31083;SDS011;36333;51.382;0.016;2022-10-16T14:58:19;27.38;;;4.35;;
31083;SDS011;36333;51.382;0.016;2022-10-16T15:00:48;25.00;;;3.92;;
31083;SDS011;36333;51.382;0.016;2022-10-16T15:03:16;28.23;;;4.32;;
31083;SDS011;36333;51.382;0.016;2022-10-16T15:05:44;23.00;;;3.85;;
31083;SDS011;36333;51.382;0.016;2022-10-16T15:08:11;23.50;;;3.92;;
31083;SDS011;36333;51.382;0.016;2022-10-16T15:10:41;30.23;;;4.25;;
31083;SDS011;36333;51.382;0.016;2022-10-16T15:13:13;26.95;;;3.88;;
31083;SDS011;36333;51.382;0.016;2022-10-16T15:15:44;27.40;;;4.18;;
31083;SDS011;36333;51.382;0.016;2022-10-16T15:18:16;25.45;;;4.18;;
31083;SDS011;36333;51.382;0.016;2022-10-16T15:20:48;17.70;;;3.90;;
31083;SDS011;36333;51.382;0.016;2022-10-16T15:23:18;23.98;;;3.97;;
31083;SDS011;36333;51.382;0.016;2022-10-16T15:25:50;20.58;;;3.80;;
31083;SDS011;36333;51.382;0.016;2022-10-16T15:28:20;22.13;;;4.05;;
31083;SDS011;36333;51.382;0.016;2022-10-16T15:31:11;20.58;;;3.67;;
31083;SDS011;36333;51.382;0.016;2022-10-16T15:33:39;30.73;;;4.15;;
31083;SDS011;36333;51.382;0.016;2022-10-16T15:36:07;20.08;;;3.45;;
31083;SDS011;36333;51.382;0.016;2022-10-16T15:38:34;26.88;;;3.65;;
31083;SDS011;36333;51.382;0.016;2022-10-16T15:41:06;29.25;;;4.30;;
31083;SDS011;36333;51.382;0.016;2022-10-16T15:43:34;24.58;;;3.97;;
31083;SDS011;36333;51.382;0.016;2022-10-16T15:46:03;28.95;;;3.90;;
31083;SDS011;36333;51.382;0.016;2022-10-16T15:48:33;27.88;;;3.65;;
31083;SDS011;36333;51.382;0.016;2022-10-16T15:51:02;20.67;;;3.38;;
31083;SDS011;36333;51.382;0.016;2022-10-16T15:53:33;24.85;;;3.50;;
31083;SDS011;36333;51.382;0.016;2022-10-16T15:56:04;17.05;;;3.63;;
31083;SDS011;36333;51.382;0.016;2022-10-16T15:58:32;25.80;;;3.95;;
31083;SDS011;36333;51.382;0.016;2022-10-16T16:01:00;18.25;;;3.55;;
31083;SDS011;36333;51.382;0.016;2022-10-16T16:03:31;24.23;;;3.33;;
31083;SDS011;36333;51.382;0.016;2022-10-16T16:06:03;23.92;;;3.38;;
31083;SDS011;36333;51.382;0.016;2022-10-16T16:08:32;23.33;;;3.03;;
31083;SDS011;36333;51.382;0.016;2022-10-16T16:11:05;16.42;;;3.17;;
31083;SDS011;36333;51.382;0.016;2022-10-16T16:13:34;18.33;;;3.10;;
31083;SDS011;36333;51.382;0.016;2022-10-16T16:16:05;21.88;;;3.33;;
31083;SDS011;36333;51.382;0.016;2022-10-16T16:18:34;20.40;;;3.53;;
31083;SDS011;36333;51.382;0.016;2022-10-16T16:21:02;23.98;;;4.43;;
31083;SDS011;36333;51.382;0.016;2022-10-16T16:23:31;25.60;;;4.53;;
31083;SDS011;36333;51.382;0.016;2022-10-16T16:26:06;18.88;;;3.65;;
31083;SDS011;36333;51.382;0.016;2022-10-16T16:28:43;20.98;;;3.95;;
31083;SDS011;36333;51.382;0.016;2022-10-16T16:31:13;17.30;;;3.65;;
31083;SDS011;36333;51.382;0.016;2022-10-16T16:33:41;17.70;;;3.40;;
31083;SDS011;36333;51.382;0.016;2022-10-16T16:36:11;22.88;;;3.38;;
31083;SDS011;36333;51.382;0.016;2022-10-16T16:38:44;16.38;;;3.63;;
31083;SDS011;36333;51.382;0.016;2022-10-16T16:41:16;22.30;;;3.60;;
31083;SDS011;36333;51.382;0.016;2022-10-16T16:43:46;18.95;;;3.28;;
31083;SDS011;36333;51.382;0.016;2022-10-16T16:46:16;22.38;;;3.40;;
31083;SDS011;36333;51.382;0.016;2022-10-16T16:48:45;21.88;;;3.90;;
31083;SDS011;36333;51.382;0.016;2022-10-16T16:51:13;18.63;;;4.32;;
31083;SDS011;36333;51.382;0.016;2022-10-16T16:53:46;24.40;;;4.10;;
31083;SDS011;36333;51.382;0.016;2022-10-16T16:56:16;34.75;;;8.38;;
31083;SDS011;36333;51.382;0.016;2022-10-16T16:58:45;55.28;;;15.60;;
31083;SDS011;36333;51.382;0.016;2022-10-16T17:01:16;29.17;;;5.95;;
31083;SDS011;36333;51.382;0.016;2022-10-16T17:03:48;24.42;;;5.00;;
31083;SDS011;36333;51.382;0.016;2022-10-16T17:06:18;20.73;;;3.90;;
31083;SDS011;36333;51.382;0.016;2022-10-16T17:08:48;24.05;;;3.70;;
31083;SDS011;36333;51.382;0.016;2022-10-16T17:11:17;22.55;;;3.60;;
31083;SDS011;36333;51.382;0.016;2022-10-16T17:13:48;21.33;;;3.63;;
31083;SDS011;36333;51.382;0.016;2022-10-16T17:16:23;24.17;;;3.78;;
31083;SDS011;36333;51.382;0.016;2022-10-16T17:18:53;20.58;;;3.67;;
31083;SDS011;36333;51.382;0.016;2022-10-16T17:21:25;18.90;;;3.60;;
31083;SDS011;36333;51.382;0.016;2022-10-16T17:23:54;19.05;;;3.70;;
31083;SDS011;36333;51.382;0.016;2022-10-16T17:26:22;16.98;;;3.17;;